Time;durP1;ratioP1;P1;durP2;ratioP2;P2;SDS_P1;SDS_P2;PMS_P1;PMS_P2;Temp;Humidity;BMP_temperature;BMP_pressure;BME280_temperature;BME280_humidity;BME280_pressure;Samples;Min_cycle;Max_cycle;Signal;HPM_P1;HPM_P2
2023/08/03 00:01:23;;;;;;;5.32;1.15;;;;;;;19.15;66.98;98964.06;5139639;27;20122;-66
2023/08/03 00:03:50;;;;;;;1.92;0.77;;;;;;;19.16;66.98;98965.66;5141264;27;20038;-68
2023/08/03 00:06:18;;;;;;;1.60;0.60;;;;;;;19.13;67.08;98971.75;5141679;27;20496;-65
2023/08/03 00:08:46;;;;;;;4.57;0.82;;;;;;;19.13;66.68;98977.22;5141420;27;20050;-66
2023/08/03 00:11:15;;;;;;;3.83;0.95;;;;;;;19.12;67.10;98970.97;5147187;27;20058;-66
2023/08/03 00:13:43;;;;;;;5.82;1.33;;;;;;;19.09;66.80;98976.25;5145871;27;20066;-65
2023/08/03 00:16:11;;;;;;;1.92;0.70;;;;;;;19.03;67.09;98966.69;5145388;27;20434;-65
2023/08/03 00:18:39;;;;;;;2.90;1.20;;;;;;;19.03;66.93;98975.66;5141458;27;20486;-65
2023/08/03 00:21:06;;;;;;;1.98;1.20;;;;;;;19.02;67.14;98981.44;5145212;27;20043;-66
2023/08/03 00:23:34;;;;;;;2.40;1.17;;;;;;;19.01;66.97;98985.28;5143700;27;20611;-65
2023/08/03 00:26:02;;;;;;;3.17;1.55;;;;;;;18.99;67.21;98987.53;5136404;27;20039;-66
2023/08/03 00:28:31;;;;;;;2.10;1.05;;;;;;;18.98;67.27;98981.28;5143251;27;20043;-66
2023/08/03 00:30:59;;;;;;;2.28;1.00;;;;;;;18.99;67.37;98992.97;5140481;27;20069;-66
2023/08/03 00:33:26;;;;;;;4.55;1.17;;;;;;;18.97;67.49;98996.00;5146615;27;20047;-66
2023/08/03 00:35:56;;;;;;;3.38;1.08;;;;;;;18.99;67.31;98990.25;5144889;27;20050;-66
2023/08/03 00:38:23;;;;;;;5.18;1.48;;;;;;;18.98;67.41;98996.81;5146325;27;20082;-67
2023/08/03 00:40:52;;;;;;;4.47;1.40;;;;;;;18.95;67.55;99006.41;5146097;27;20043;-66
2023/08/03 00:43:20;;;;;;;5.47;1.30;;;;;;;18.95;67.63;99006.41;5147148;27;20062;-66
2023/08/03 00:45:49;;;;;;;5.43;1.27;;;;;;;18.95;67.52;99022.75;5142009;27;20063;-66
2023/08/03 00:48:19;;;;;;;3.30;1.70;;;;;;;18.94;67.39;99021.16;5145093;27;20095;-65
2023/08/03 00:50:46;;;;;;;7.53;1.92;;;;;;;18.93;67.98;99029.63;5144009;27;20527;-66
2023/08/03 00:53:14;;;;;;;6.13;2.05;;;;;;;18.91;67.80;99029.97;5142837;27;20082;-66
2023/08/03 00:55:42;;;;;;;4.97;1.45;;;;;;;18.90;67.47;99041.97;5142475;27;20047;-67
2023/08/03 00:58:10;;;;;;;6.20;1.50;;;;;;;18.90;67.69;99052.88;5143128;27;20511;-66
2023/08/03 01:00:38;;;;;;;2.85;2.08;;;;;;;18.89;67.68;99045.03;5145082;27;20088;-65
2023/08/03 01:03:07;;;;;;;4.45;1.30;;;;;;;18.89;67.68;99047.75;5148102;27;20110;-65
2023/08/03 01:05:35;;;;;;;4.72;1.70;;;;;;;18.88;67.96;99052.38;5142253;27;20051;-66
2023/08/03 01:08:03;;;;;;;5.13;1.58;;;;;;;18.86;68.03;99051.91;5138460;27;20112;-65
2023/08/03 01:10:31;;;;;;;5.07;1.50;;;;;;;18.87;68.01;99055.41;5138068;27;20035;-64
2023/08/03 01:13:00;;;;;;;3.33;1.83;;;;;;;18.86;67.65;99060.06;5141887;27;20105;-65
2023/08/03 01:15:27;;;;;;;2.78;1.80;;;;;;;18.86;68.02;99068.22;5142539;27;20147;-66
2023/08/03 01:17:55;;;;;;;3.85;1.75;;;;;;;18.85;68.09;99070.16;5139728;27;20039;-64
2023/08/03 01:20:26;;;;;;;3.80;1.50;;;;;;;18.85;67.64;99077.53;5142651;27;20548;-66
2023/08/03 01:22:55;;;;;;;3.72;1.33;;;;;;;18.85;67.75;99078.31;5142162;27;20097;-65
2023/08/03 01:25:22;;;;;;;5.40;1.85;;;;;;;18.85;67.92;99082.97;5136273;27;20132;-66
2023/08/03 01:27:50;;;;;;;7.10;1.50;;;;;;;18.87;67.68;99093.53;5142901;27;20043;-66
2023/08/03 01:30:18;;;;;;;6.75;1.10;;;;;;;18.85;67.71;99105.53;5138951;27;20601;-65
2023/08/03 01:32:46;;;;;;;3.05;1.13;;;;;;;18.85;67.95;99100.09;5141756;27;20111;-65
2023/08/03 01:35:14;;;;;;;3.78;1.02;;;;;;;18.85;67.82;99102.03;5141431;27;20047;-65
2023/08/03 01:37:42;;;;;;;4.38;1.65;;;;;;;18.84;67.82;99103.94;5141685;27;20104;-65
2023/08/03 01:40:11;;;;;;;3.78;1.45;;;;;;;18.85;67.50;99110.19;5140923;27;20038;-65
2023/08/03 01:42:40;;;;;;;2.95;1.42;;;;;;;18.83;67.73;99110.50;5135736;27;20073;-64
2023/08/03 01:45:08;;;;;;;4.93;1.23;;;;;;;18.82;67.90;99117.06;5140433;27;20563;-66
2023/08/03 01:47:36;;;;;;;2.42;1.30;;;;;;;18.83;67.95;99118.66;5140746;27;20039;-64
2023/08/03 01:50:05;;;;;;;6.13;1.70;;;;;;;18.84;68.04;99114.81;5137356;27;20309;-66
2023/08/03 01:52:33;;;;;;;5.00;2.40;;;;;;;18.83;67.99;99117.88;5145202;27;20042;-65
2023/08/03 01:55:00;;;;;;;3.53;1.63;;;;;;;18.82;68.13;99124.44;5137463;27;20051;-66
2023/08/03 01:57:29;;;;;;;4.10;1.30;;;;;;;18.85;68.12;99115.63;5144103;27;20108;-66
2023/08/03 01:59:57;;;;;;;7.03;1.70;;;;;;;18.81;68.21;99115.47;5143558;27;20035;-66
2023/08/03 02:02:25;;;;;;;4.82;1.52;;;;;;;18.80;68.24;99104.91;5143169;27;20104;-64
2023/08/03 02:04:53;;;;;;;4.35;1.38;;;;;;;18.80;68.14;99121.22;5146389;27;20134;-65
2023/08/03 02:07:42;;;;;;;3.80;1.45;;;;;;;18.79;68.24;99106.81;5145359;27;20051;-67
2023/08/03 02:10:10;;;;;;;5.68;1.30;;;;;;;18.79;68.24;99122.34;5141207;27;20047;-66
2023/08/03 02:12:39;;;;;;;6.53;2.15;;;;;;;18.76;68.84;99121.06;5146598;27;20043;-65
2023/08/03 02:15:08;;;;;;;7.32;2.35;;;;;;;18.80;67.98;99116.59;5145810;27;20451;-67
2023/08/03 02:17:36;;;;;;;7.85;1.92;;;;;;;18.77;68.33;99114.50;5144391;27;20118;-65
2023/08/03 02:20:04;;;;;;;7.90;2.00;;;;;;;18.78;68.39;99118.03;5141646;27;20038;-66
2023/08/03 02:22:32;;;;;;;5.28;1.70;;;;;;;18.76;68.20;99115.63;5142986;27;20112;-65
2023/08/03 02:25:00;;;;;;;8.95;2.40;;;;;;;18.83;68.06;99120.59;5138229;27;20104;-67
2023/08/03 02:27:28;;;;;;;9.73;2.60;;;;;;;18.78;68.37;99118.03;5139971;27;20043;-66
2023/08/03 02:29:57;;;;;;;9.75;2.20;;;;;;;18.74;68.25;99114.34;5142865;27;20072;-67
2023/08/03 02:32:27;;;;;;;10.65;2.55;;;;;;;18.74;68.63;99119.78;5137960;27;20070;-66
2023/08/03 02:34:54;;;;;;;8.13;2.15;;;;;;;18.72;68.25;99127.47;5141590;27;20207;-66
2023/08/03 02:37:22;;;;;;;8.93;2.80;;;;;;;18.71;68.40;99120.41;5140022;27;20068;-67
2023/08/03 02:39:50;;;;;;;11.50;2.95;;;;;;;18.74;68.38;99134.19;5137854;27;20050;-66
2023/08/03 02:42:18;;;;;;;12.30;3.15;;;;;;;18.69;68.47;99128.88;5133775;27;20392;-65
2023/08/03 02:44:46;;;;;;;9.70;2.22;;;;;;;18.68;68.64;99121.84;5142131;27;20359;-65
2023/08/03 02:47:15;;;;;;;10.55;2.30;;;;;;;18.67;68.55;99117.53;5139224;27;20071;-65
2023/08/03 02:49:42;;;;;;;7.72;2.45;;;;;;;18.67;68.35;99112.06;5139939;27;20055;-67
2023/08/03 02:52:10;;;;;;;8.38;2.33;;;;;;;18.68;68.14;99113.69;5141066;27;20126;-65
2023/08/03 02:54:38;;;;;;;10.18;2.67;;;;;;;18.67;68.55;99111.28;5138005;27;20050;-65
2023/08/03 02:57:06;;;;;;;14.00;2.47;;;;;;;18.65;68.48;99119.75;5139045;27;20419;-65
2023/08/03 02:59:34;;;;;;;9.60;2.90;;;;;;;18.65;68.66;99127.91;5139827;27;20047;-67
2023/08/03 03:02:02;;;;;;;9.15;2.10;;;;;;;18.64;68.71;99125.53;5139837;27;20092;-66
2023/08/03 03:04:31;;;;;;;5.38;2.03;;;;;;;18.63;68.51;99116.56;5141129;27;20047;-66
2023/08/03 03:06:58;;;;;;;9.75;2.60;;;;;;;18.64;68.42;99130.97;5138297;27;20069;-66
2023/08/03 03:09:26;;;;;;;7.68;2.38;;;;;;;18.66;68.19;99131.44;5139022;27;20059;-65
2023/08/03 03:11:55;;;;;;;12.02;2.92;;;;;;;18.64;68.57;99128.25;5135325;27;20050;-66
2023/08/03 03:14:23;;;;;;;11.65;3.13;;;;;;;18.62;68.54;99128.56;5142310;27;20043;-65
2023/08/03 03:16:51;;;;;;;10.32;2.50;;;;;;;18.62;68.75;99146.81;5136736;27;20073;-67
2023/08/03 03:19:19;;;;;;;11.85;2.78;;;;;;;18.61;68.45;99140.56;5141050;27;20050;-67
2023/08/03 03:21:48;;;;;;;6.65;2.30;;;;;;;18.61;68.54;99145.19;5138969;28;20613;-67
2023/08/03 03:24:16;;;;;;;9.07;2.63;;;;;;;18.61;68.65;99156.09;5138008;27;20051;-66
2023/08/03 03:26:44;;;;;;;10.65;2.80;;;;;;;18.59;69.01;99161.00;5138640;27;20040;-66
2023/08/03 03:29:12;;;;;;;8.90;2.40;;;;;;;18.58;68.65;99154.75;5142365;27;20047;-66
2023/08/03 03:31:40;;;;;;;13.68;3.53;;;;;;;18.62;68.46;99160.41;5137017;28;20035;-66
2023/08/03 03:34:07;;;;;;;6.93;2.42;;;;;;;18.60;68.67;99163.41;5137906;27;20071;-66
2023/08/03 03:36:35;;;;;;;8.15;1.75;;;;;;;18.59;68.47;99169.16;5140210;27;20100;-67
2023/08/03 03:39:05;;;;;;;10.23;3.00;;;;;;;18.58;68.67;99173.81;5141763;27;20049;-67
2023/08/03 03:41:33;;;;;;;9.05;3.15;;;;;;;18.58;68.88;99168.38;5140295;27;20047;-68
2023/08/03 03:44:01;;;;;;;10.32;2.17;;;;;;;18.58;68.90;99192.84;5147187;27;20051;-67
2023/08/03 03:46:28;;;;;;;8.88;3.55;;;;;;;18.58;69.05;99186.63;5141477;27;20644;-66
2023/08/03 03:48:56;;;;;;;5.95;2.17;;;;;;;18.54;69.12;99189.97;5147810;27;20035;-67
2023/08/03 03:51:24;;;;;;;9.73;2.60;;;;;;;18.54;69.00;99197.31;5140818;27;20544;-67
2023/08/03 03:53:52;;;;;;;6.75;2.10;;;;;;;18.53;68.92;99193.81;5145101;27;20054;-66
2023/08/03 03:56:21;;;;;;;8.63;1.98;;;;;;;18.55;68.85;99196.22;5139288;27;20077;-66
2023/08/03 03:58:49;;;;;;;11.68;3.70;;;;;;;18.53;68.88;99193.81;5145919;27;20043;-66
2023/08/03 04:01:16;;;;;;;7.97;2.30;;;;;;;18.53;68.73;99199.25;5147300;27;20256;-66
2023/08/03 04:03:44;;;;;;;6.55;2.08;;;;;;;18.53;68.71;99201.16;5143983;27;20043;-66
2023/08/03 04:06:12;;;;;;;9.30;2.55;;;;;;;18.52;68.80;99210.44;4790848;27;10000198;-67
2023/08/03 04:08:40;;;;;;;7.28;1.92;;;;;;;18.51;69.30;99206.91;5142101;27;20046;-66
2023/08/03 04:11:08;;;;;;;6.72;2.15;;;;;;;18.50;69.37;99218.13;5144793;27;20051;-66
2023/08/03 04:13:37;;;;;;;7.53;1.92;;;;;;;18.48;69.28;99214.91;5141173;27;20574;-65
2023/08/03 04:16:05;;;;;;;7.45;2.00;;;;;;;18.49;69.14;99219.22;5146297;27;20612;-64
2023/08/03 04:18:34;;;;;;;7.30;2.20;;;;;;;18.48;69.23;99223.88;5145056;27;20941;-65
2023/08/03 04:21:02;;;;;;;7.07;2.97;;;;;;;18.48;69.11;99236.66;5144254;27;20080;-64
2023/08/03 04:23:29;;;;;;;8.88;2.47;;;;;;;18.49;69.01;99230.91;5145473;27;20051;-65
2023/08/03 04:25:57;;;;;;;7.85;1.90;;;;;;;18.48;69.38;99228.50;5143648;27;20051;-64
2023/08/03 04:28:25;;;;;;;6.63;1.98;;;;;;;18.47;69.07;99245.94;5142936;27;20047;-66
2023/08/03 04:30:54;;;;;;;8.15;2.38;;;;;;;18.46;69.08;99241.63;5135690;27;20039;-65
2023/08/03 04:33:22;;;;;;;12.15;3.33;;;;;;;18.45;69.66;99242.72;5141599;27;20066;-66
2023/08/03 04:35:50;;;;;;;7.47;2.55;;;;;;;18.42;69.32;99243.34;5141826;27;20078;-68
2023/08/03 04:38:18;;;;;;;4.82;1.80;;;;;;;18.45;69.16;99262.56;5143575;27;20047;-67
2023/08/03 04:40:46;;;;;;;5.20;1.83;;;;;;;18.44;69.09;99252.00;5143866;27;20043;-67
2023/08/03 04:43:14;;;;;;;7.35;2.45;;;;;;;18.44;69.31;99260.16;5144128;27;20051;-68
2023/08/03 04:45:41;;;;;;;8.50;1.88;;;;;;;18.44;69.11;99263.69;5139276;27;20051;-69
2023/08/03 04:48:11;;;;;;;5.78;1.80;;;;;;;18.42;69.40;99271.38;5145041;27;20047;-67
2023/08/03 04:50:39;;;;;;;6.55;2.03;;;;;;;18.41;69.58;99269.75;5144043;27;20071;-70
2023/08/03 04:53:06;;;;;;;5.88;2.00;;;;;;;18.41;69.38;99279.84;5141330;27;20104;-67
2023/08/03 04:55:34;;;;;;;5.07;1.50;;;;;;;18.38;69.58;99280.47;5135290;27;20070;-68
2023/08/03 04:58:02;;;;;;;3.30;1.30;;;;;;;18.38;69.79;99288.63;5141559;27;20457;-67
2023/08/03 05:00:29;;;;;;;4.45;1.50;;;;;;;18.35;70.30;99289.25;5140288;27;20043;-70
2023/08/03 05:02:57;;;;;;;3.05;1.13;;;;;;;18.34;70.00;99299.31;5141874;27;20508;-65
2023/08/03 05:05:26;;;;;;;3.78;1.33;;;;;;;18.31;70.37;99302.66;5141853;27;20099;-62
2023/08/03 05:07:54;;;;;;;5.82;1.63;;;;;;;18.30;70.51;99295.63;5136226;27;20069;-65
2023/08/03 05:10:22;;;;;;;3.03;1.30;;;;;;;18.29;70.73;99307.59;5141868;27;20092;-65
2023/08/03 05:12:50;;;;;;;3.35;1.60;;;;;;;18.28;70.78;99307.91;5139195;27;20048;-65
2023/08/03 05:15:18;;;;;;;3.90;1.48;;;;;;;18.28;70.59;99324.22;5141284;27;20055;-66
2023/08/03 05:17:48;;;;;;;2.75;1.30;;;;;;;18.30;70.85;99332.88;5138822;27;20061;-68
2023/08/03 05:20:16;;;;;;;5.88;1.80;;;;;;;18.29;70.77;99332.09;5138133;27;20119;-67
2023/08/03 05:22:45;;;;;;;4.63;1.52;;;;;;;18.30;70.59;99332.88;5143566;27;20043;-68
2023/08/03 05:25:13;;;;;;;4.88;1.40;;;;;;;18.39;70.15;99328.31;5139985;27;20156;-68
2023/08/03 05:27:41;;;;;;;4.10;1.52;;;;;;;18.36;70.68;99328.94;5142688;27;20411;-68
2023/08/03 05:30:10;;;;;;;4.40;1.58;;;;;;;18.34;70.55;99348.28;5138759;27;20084;-68
2023/08/03 05:32:38;;;;;;;4.63;1.60;;;;;;;18.38;70.36;99353.91;5142557;27;20111;-68
2023/08/03 05:35:06;;;;;;;2.90;1.35;;;;;;;18.36;70.47;99354.22;5142542;27;20110;-68
2023/08/03 05:37:34;;;;;;;3.72;1.67;;;;;;;18.34;70.69;99351.00;5140676;27;20220;-68
2023/08/03 05:40:04;;;;;;;3.67;1.23;;;;;;;18.34;70.61;99355.63;5141535;27;20096;-67
2023/08/03 05:42:38;;;;;;;2.75;1.05;;;;;;;18.43;70.17;99364.66;5145637;27;20043;-67
2023/08/03 05:45:12;;;;;;;2.60;1.33;;;;;;;18.46;70.15;99355.88;5131350;27;20051;-67
2023/08/03 05:47:40;;;;;;;3.30;1.38;;;;;;;18.38;70.33;99362.88;5139775;27;20058;-67
2023/08/03 05:50:14;;;;;;;2.03;1.15;;;;;;;18.36;70.42;99375.97;5149123;27;20043;-67
2023/08/03 05:52:42;;;;;;;1.73;1.30;;;;;;;18.36;70.40;99373.25;5144280;27;20091;-67
2023/08/03 05:55:12;;;;;;;2.75;1.10;;;;;;;18.34;70.70;99391.78;5147283;27;20043;-67
2023/08/03 05:57:40;;;;;;;2.80;1.30;;;;;;;18.39;70.29;99388.16;5139692;27;20054;-66
2023/08/03 06:00:15;;;;;;;3.78;1.00;;;;;;;18.36;70.36;99394.22;5137115;27;20065;-66
2023/08/03 06:02:44;;;;;;;2.97;1.05;;;;;;;18.37;70.57;99390.38;5143732;27;20070;-66
2023/08/03 06:05:41;;;;;;;4.90;1.33;;;;;;;18.41;70.11;99397.63;5142442;27;20074;-66
2023/08/03 06:08:12;;;;;;;1.58;0.80;;;;;;;18.35;70.36;99396.13;5138582;27;20062;-66
2023/08/03 06:10:41;;;;;;;5.20;1.90;;;;;;;18.41;69.89;99403.06;5137998;27;20047;-67
2023/08/03 06:13:11;;;;;;;4.43;1.75;;;;;;;18.40;70.07;99403.34;5140223;27;20043;-66
2023/08/03 06:15:40;;;;;;;2.53;1.30;;;;;;;18.54;69.64;99412.25;5140197;27;20039;-66
2023/08/03 06:18:11;;;;;;;4.25;1.10;;;;;;;18.58;69.57;99417.91;5140634;27;20104;-65
2023/08/03 06:20:41;;;;;;;5.38;1.63;;;;;;;18.43;70.24;99419.88;5139104;27;20305;-65
2023/08/03 06:23:16;;;;;;;4.47;1.20;;;;;;;18.61;69.30;99429.00;5143999;27;20054;-65
2023/08/03 06:25:45;;;;;;;4.47;1.30;;;;;;;18.50;69.63;99424.88;5143049;27;20100;-66
2023/08/03 06:28:15;;;;;;;3.28;1.10;;;;;;;18.53;69.40;99422.34;5138903;27;20107;-67
2023/08/03 06:30:44;;;;;;;2.25;0.95;;;;;;;18.56;69.81;99431.81;5139524;27;20053;-66
2023/08/03 06:33:13;;;;;;;7.90;1.50;;;;;;;18.46;69.76;99435.56;5144291;27;20126;-65
2023/08/03 06:35:43;;;;;;;4.32;1.40;;;;;;;18.46;70.09;99432.84;5140494;27;20047;-66
2023/08/03 06:38:13;;;;;;;4.97;1.45;;;;;;;18.47;69.77;99447.25;5142424;27;20059;-65
2023/08/03 06:40:41;;;;;;;5.50;1.90;;;;;;;18.42;70.04;99444.66;5142564;27;20076;-65
2023/08/03 06:43:11;;;;;;;5.70;1.40;;;;;;;18.41;69.94;99451.22;5137002;27;20553;-65
2023/08/03 06:45:40;;;;;;;4.38;1.20;;;;;;;18.38;70.22;99451.81;5141727;27;20051;-65
2023/08/03 06:48:09;;;;;;;2.92;1.30;;;;;;;18.39;70.28;99462.41;5141590;27;20043;-65
2023/08/03 06:50:38;;;;;;;5.43;1.83;;;;;;;18.39;70.31;99465.13;5140849;27;20051;-66
2023/08/03 06:53:07;;;;;;;10.07;1.83;;;;;;;18.54;70.78;99472.13;5141763;27;20481;-65
2023/08/03 06:55:34;;;;;;;3.13;1.48;;;;;;;18.59;69.55;99471.19;5138755;27;20047;-66
2023/08/03 06:58:03;;;;;;;8.15;2.17;;;;;;;18.53;69.71;99473.25;5136575;27;20058;-65
2023/08/03 07:00:32;;;;;;;6.75;1.60;;;;;;;18.54;69.77;99485.72;5145407;27;20056;-65
2023/08/03 07:03:00;;;;;;;7.35;1.85;;;;;;;18.45;70.00;99491.09;5144782;27;20110;-65
2023/08/03 07:05:28;;;;;;;3.53;1.42;;;;;;;18.35;69.85;99483.16;5133523;27;20142;-66
2023/08/03 07:07:56;;;;;;;6.50;1.95;;;;;;;18.38;70.35;99500.78;5139323;27;20497;-66
2023/08/03 07:10:24;;;;;;;6.80;1.80;;;;;;;18.39;70.35;99505.13;5137139;27;20058;-66
2023/08/03 07:12:55;;;;;;;6.70;1.95;;;;;;;18.42;70.63;99515.38;5137597;27;20039;-64
2023/08/03 07:15:23;;;;;;;7.93;2.83;;;;;;;18.39;70.50;99516.00;5140901;27;20062;-65
2023/08/03 07:17:52;;;;;;;7.50;1.80;;;;;;;18.45;70.67;99515.59;5139974;27;20092;-64
2023/08/03 07:20:20;;;;;;;4.75;1.75;;;;;;;18.46;70.34;99517.19;5140289;27;20078;-65
2023/08/03 07:22:48;;;;;;;5.53;1.65;;;;;;;18.39;70.53;99518.72;5140416;27;20101;-63
2023/08/03 07:25:16;;;;;;;9.02;1.98;;;;;;;18.41;70.63;99527.38;5139051;27;20047;-65
2023/08/03 07:27:44;;;;;;;6.80;1.70;;;;;;;18.46;70.82;99532.72;5139426;28;20039;-66
2023/08/03 07:30:12;;;;;;;5.25;2.10;;;;;;;18.44;70.75;99534.94;5139514;27;20059;-65
2023/08/03 07:32:40;;;;;;;8.43;1.67;;;;;;;18.63;70.32;99537.53;5143769;27;20075;-65
2023/08/03 07:35:09;;;;;;;9.98;2.90;;;;;;;18.58;70.23;99537.63;5131250;27;20047;-67
2023/08/03 07:37:37;;;;;;;8.07;2.05;;;;;;;18.66;70.22;99543.16;5137168;27;20043;-68
2023/08/03 07:40:07;;;;;;;7.10;1.55;;;;;;;18.58;70.09;99535.69;5140301;27;20051;-65
2023/08/03 07:42:35;;;;;;;4.32;1.65;;;;;;;18.45;70.22;99531.09;5138785;27;20039;-66
2023/08/03 07:45:03;;;;;;;8.70;2.42;;;;;;;18.42;70.42;99520.84;5140153;27;20043;-65
2023/08/03 07:47:31;;;;;;;5.40;1.83;;;;;;;18.61;70.13;99554.16;5145521;27;20058;-66
2023/08/03 07:49:59;;;;;;;6.50;1.38;;;;;;;18.54;70.14;99554.56;5142711;27;20047;-65
2023/08/03 07:52:28;;;;;;;5.65;2.00;;;;;;;18.57;69.88;99564.03;5143436;27;20124;-65
2023/08/03 07:54:56;;;;;;;6.72;1.80;;;;;;;18.53;69.86;99560.31;5144689;27;20118;-66
2023/08/03 07:57:24;;;;;;;9.73;1.67;;;;;;;18.51;70.08;99568.78;5139455;28;20376;-66
2023/08/03 07:59:52;;;;;;;4.75;1.38;;;;;;;18.60;69.94;99568.84;5136980;28;20046;-67
2023/08/03 08:02:20;;;;;;;8.52;2.28;;;;;;;18.73;69.30;99569.97;5139613;27;20043;-66
2023/08/03 08:04:51;;;;;;;5.68;2.30;;;;;;;18.63;69.61;99581.88;5131219;28;20474;-65
2023/08/03 08:07:19;;;;;;;4.50;1.90;;;;;;;18.59;69.87;99585.50;5142756;27;20047;-66
2023/08/03 08:09:48;;;;;;;8.07;2.50;;;;;;;18.64;69.69;99594.38;5139683;27;20043;-65
2023/08/03 08:12:16;;;;;;;5.65;2.03;;;;;;;18.70;69.54;99595.06;5138345;28;20058;-65
2023/08/03 08:14:44;;;;;;;8.32;1.65;;;;;;;18.64;69.62;99593.56;5140549;27;20046;-65
2023/08/03 08:17:12;;;;;;;6.75;1.45;;;;;;;18.73;69.57;99599.91;5138692;27;20047;-68
2023/08/03 08:19:41;;;;;;;10.05;1.80;;;;;;;18.74;69.17;99610.50;5141467;27;20491;-64
2023/08/03 08:22:11;;;;;;;8.15;1.95;;;;;;;18.88;68.61;99618.63;5140682;27;20131;-63
2023/08/03 08:24:44;;;;;;;6.80;1.80;;;;;;;18.82;68.74;99615.19;5142726;27;20043;-64
2023/08/03 08:27:16;;;;;;;7.57;1.98;;;;;;;18.70;69.28;99633.97;5143125;27;20047;-64
2023/08/03 08:29:45;;;;;;;10.50;1.90;;;;;;;18.65;69.70;99636.00;5147941;27;20043;-64
2023/08/03 08:32:13;;;;;;;5.22;1.80;;;;;;;18.60;69.96;99636.88;4781331;27;10000526;-64
2023/08/03 08:34:41;;;;;;;5.97;1.70;;;;;;;18.57;70.18;99645.66;5138496;27;20047;-64
2023/08/03 08:37:09;;;;;;;4.07;1.60;;;;;;;18.63;70.24;99655.38;5133659;27;21224;-66
2023/08/03 08:39:37;;;;;;;8.07;2.13;;;;;;;18.76;69.78;99656.44;5146628;27;20051;-64
2023/08/03 08:42:12;;;;;;;5.28;1.80;;;;;;;18.68;70.03;99655.25;5140939;27;20047;-63
2023/08/03 08:44:41;;;;;;;4.47;1.77;;;;;;;18.65;70.11;99665.94;5142698;27;20055;-62
2023/08/03 08:47:09;;;;;;;3.03;1.15;;;;;;;18.63;69.99;99665.44;5145593;27;20039;-66
2023/08/03 08:49:37;;;;;;;4.53;1.10;;;;;;;18.80;69.66;99673.78;5137031;27;20076;-65
2023/08/03 08:52:10;;;;;;;5.57;1.20;;;;;;;18.65;70.21;99676.81;5141266;27;20069;-69
2023/08/03 08:54:38;;;;;;;3.92;1.90;;;;;;;18.85;69.95;99677.22;5144985;27;20491;-69
2023/08/03 08:57:09;;;;;;;7.35;2.10;;;;;;;18.69;70.19;99680.56;5141689;27;20039;-64
2023/08/03 08:59:59;;;;;;;4.93;1.50;;;;;;;18.66;70.55;99687.41;5137157;27;20051;-65
2023/08/03 09:02:27;;;;;;;5.75;1.50;;;;;;;18.59;70.30;99692.44;5143098;27;20051;-65
2023/08/03 09:04:56;;;;;;;4.22;1.45;;;;;;;18.62;70.50;99691.03;5144633;27;20054;-65
2023/08/03 09:07:24;;;;;;;5.15;1.50;;;;;;;18.55;70.63;99699.56;5143878;27;20054;-65
2023/08/03 09:10:01;;;;;;;7.13;1.58;;;;;;;18.54;70.67;99706.94;5142583;27;20162;-65
2023/08/03 09:12:29;;;;;;;4.50;1.17;;;;;;;18.59;70.77;99694.34;5144204;27;20066;-66
2023/08/03 09:14:58;;;;;;;4.35;1.35;;;;;;;18.69;70.63;99718.66;5137945;27;20062;-64
2023/08/03 09:17:27;;;;;;;4.43;1.20;;;;;;;18.58;70.75;99719.94;5145084;27;20067;-64
2023/08/03 09:19:56;;;;;;;4.15;1.17;;;;;;;18.56;70.98;99730.31;5142824;27;20089;-64
2023/08/03 09:22:27;;;;;;;3.75;1.02;;;;;;;18.54;70.84;99739.59;5134706;27;20446;-62
2023/08/03 09:25:02;;;;;;;5.18;1.20;;;;;;;18.48;70.92;99742.72;5142274;27;20050;-62
2023/08/03 09:27:29;;;;;;;4.53;1.33;;;;;;;18.66;70.92;99749.19;5135148;27;20065;-62
2023/08/03 09:30:03;;;;;;;3.17;1.08;;;;;;;18.52;70.76;99749.16;5136741;27;20051;-62
2023/08/03 09:32:42;;;;;;;4.80;1.40;;;;;;;18.60;70.83;99756.63;5138784;27;20068;-62
2023/08/03 09:35:20;;;;;;;5.18;1.33;;;;;;;18.55;70.86;99764.88;5139022;27;20047;-63
2023/08/03 09:37:49;;;;;;;2.78;0.85;;;;;;;18.51;71.56;99774.75;5140700;27;20096;-62
2023/08/03 09:40:19;;;;;;;5.20;1.30;;;;;;;18.65;71.15;99780.25;5134899;27;20051;-62
2023/08/03 09:42:48;;;;;;;3.63;1.40;;;;;;;18.53;71.30;99786.16;5135786;27;20047;-62
2023/08/03 09:45:18;;;;;;;5.15;1.75;;;;;;;18.52;71.23;99800.84;5140679;27;20074;-62
2023/08/03 09:47:50;;;;;;;4.47;1.30;;;;;;;18.58;71.17;99796.13;5139043;27;20039;-62
2023/08/03 09:50:19;;;;;;;4.38;1.70;;;;;;;18.58;71.10;99798.84;5145209;27;20137;-62
2023/08/03 09:52:49;;;;;;;6.00;1.98;;;;;;;18.57;71.29;99802.69;5140317;27;20052;-61
2023/08/03 09:55:27;;;;;;;5.72;1.70;;;;;;;18.50;71.43;99814.75;5132960;27;20047;-61
2023/08/03 09:58:00;;;;;;;8.48;1.33;;;;;;;18.47;71.53;99814.56;5141985;27;20043;-62
2023/08/03 10:00:30;;;;;;;3.83;1.40;;;;;;;18.43;71.84;99817.06;5143267;27;20055;-62
2023/08/03 10:03:05;;;;;;;2.60;1.10;;;;;;;18.61;71.34;99828.22;5144077;27;20145;-63
2023/08/03 10:05:37;;;;;;;4.93;1.13;;;;;;;18.58;71.23;99832.31;5138589;27;20058;-61
2023/08/03 10:08:10;;;;;;;5.63;1.23;;;;;;;18.48;71.55;99833.31;5142063;27;20104;-61
2023/08/03 10:10:43;;;;;;;3.85;1.48;;;;;;;18.61;71.21;99833.66;5138193;27;20062;-62
2023/08/03 10:13:11;;;;;;;3.58;1.20;;;;;;;18.50;71.56;99839.25;5137909;27;20050;-62
2023/08/03 10:15:41;;;;;;;4.47;1.00;;;;;;;18.48;71.67;99851.53;5138452;27;20096;-62
2023/08/03 10:18:09;;;;;;;3.97;1.02;;;;;;;18.45;71.78;99852.13;5140812;27;20066;-64
2023/08/03 10:20:39;;;;;;;3.00;0.90;;;;;;;18.44;72.02;99855.97;5136785;27;20150;-63
2023/08/03 10:23:12;;;;;;;3.58;1.10;;;;;;;18.51;71.71;99859.91;5136507;27;20051;-65
2023/08/03 10:25:51;;;;;;;3.35;1.08;;;;;;;18.48;71.62;99863.22;5137276;27;20059;-65
2023/08/03 10:28:20;;;;;;;4.28;0.75;;;;;;;18.46;71.77;99864.63;5136314;27;20273;-64
2023/08/03 10:31:07;;;;;;;2.03;0.98;;;;;;;18.46;72.01;99864.63;5139789;27;20098;-64
2023/08/03 10:34:06;;;;;;;3.67;1.08;;;;;;;18.45;71.97;99860.31;5140284;27;20047;-64
2023/08/03 10:36:46;;;;;;;3.65;1.00;;;;;;;18.60;71.54;99867.41;5075802;28;20063;-65
2023/08/03 10:39:16;;;;;;;4.75;1.10;;;;;;;18.53;71.57;99875.94;5075908;28;20071;-67
2023/08/03 10:41:46;;;;;;;1.38;0.68;;;;;;;18.50;71.81;99877.34;5078310;28;20052;-65
2023/08/03 10:44:23;;;;;;;3.55;1.00;;;;;;;18.48;71.98;99879.56;5073652;28;20125;-65
2023/08/03 10:46:53;;;;;;;4.72;1.00;;;;;;;18.52;71.66;99879.78;5074093;28;20376;-66
2023/08/03 10:49:56;;;;;;;2.97;1.10;;;;;;;18.63;71.82;99894.84;5076670;28;20056;-65
2023/08/03 10:52:27;;;;;;;2.20;0.77;;;;;;;18.65;71.96;99892.63;5071594;28;20083;-65
2023/08/03 10:54:57;;;;;;;3.75;1.13;;;;;;;18.71;71.39;99894.16;5070748;28;20052;-65
2023/08/03 10:57:27;;;;;;;2.75;1.52;;;;;;;18.71;71.82;99896.88;5078705;28;20078;-65
2023/08/03 10:59:56;;;;;;;6.13;1.42;;;;;;;18.66;71.73;99905.16;5079827;28;20585;-67
2023/08/03 11:02:28;;;;;;;3.58;1.00;;;;;;;18.64;71.89;99907.34;5073805;28;20083;-67
2023/08/03 11:04:58;;;;;;;4.43;1.30;;;;;;;18.78;71.56;99907.38;5075358;28;20271;-66
2023/08/03 11:07:30;;;;;;;3.03;1.40;;;;;;;18.73;71.38;99911.00;5076555;28;20048;-66
2023/08/03 11:09:58;;;;;;;2.30;1.02;;;;;;;18.64;71.56;99907.34;5088240;27;20077;-65
2023/08/03 11:12:27;;;;;;;3.78;0.80;;;;;;;18.64;71.70;99923.69;5136831;27;20348;-65
2023/08/03 11:14:57;;;;;;;2.63;1.30;;;;;;;18.73;71.91;99924.63;5148277;27;20039;-66
2023/08/03 11:17:27;;;;;;;3.22;1.08;;;;;;;18.75;71.79;99930.56;5149229;27;20107;-65
2023/08/03 11:19:56;;;;;;;4.13;1.27;;;;;;;18.77;71.55;99924.84;5146127;27;20046;-65
2023/08/03 11:22:25;;;;;;;3.83;1.30;;;;;;;18.74;71.78;99928.16;5144537;27;20057;-65
2023/08/03 11:24:56;;;;;;;3.08;1.20;;;;;;;18.75;71.80;99932.50;5143415;28;20047;-64
2023/08/03 11:27:24;;;;;;;4.55;1.70;;;;;;;18.81;71.52;99936.75;5134252;28;20048;-64
2023/08/03 11:29:53;;;;;;;2.35;1.00;;;;;;;18.70;71.90;99932.56;5145504;27;20073;-64
2023/08/03 11:32:25;;;;;;;2.40;0.75;;;;;;;18.75;71.71;99938.75;5139671;28;20047;-67
2023/08/03 11:34:59;;;;;;;2.20;1.38;;;;;;;18.90;71.88;99939.59;5143724;27;20050;-67
2023/08/03 11:37:31;;;;;;;3.10;1.42;;;;;;;18.86;71.13;99944.81;5140355;27;20051;-65
2023/08/03 11:40:00;;;;;;;6.35;1.98;;;;;;;18.80;71.76;99937.84;5138924;28;20043;-65
2023/08/03 11:42:29;;;;;;;3.83;1.20;;;;;;;18.73;71.82;99954.56;5133473;28;20085;-65